Map

Track Data

SID SEASON NUMBER BASIN SUBBASIN NAME ISO_TIME NATURE LAT LON WMO_WIND WMO_PRES WMO_AGENCY TRACK_TYPE DIST2LAND LANDFALL IFLAG USA_AGENCY USA_ATCF_ID USA_LAT USA_LON USA_RECORD USA_STATUS USA_WIND USA_PRES USA_SSHS USA_R34_NE USA_R34_SE USA_R34_SW USA_R34_NW USA_R50_NE USA_R50_SE USA_R50_SW USA_R50_NW USA_R64_NE USA_R64_SE USA_R64_SW USA_R64_NW USA_POCI USA_ROCI USA_RMW USA_EYE TOKYO_LAT TOKYO_LON TOKYO_GRADE TOKYO_WIND TOKYO_PRES TOKYO_R50_DIR TOKYO_R50_LONG TOKYO_R50_SHORT TOKYO_R30_DIR TOKYO_R30_LONG TOKYO_R30_SHORT TOKYO_LAND CMA_LAT CMA_LON CMA_CAT CMA_WIND CMA_PRES HKO_LAT HKO_LON HKO_CAT HKO_WIND HKO_PRES NEWDELHI_LAT NEWDELHI_LON NEWDELHI_GRADE NEWDELHI_WIND NEWDELHI_PRES NEWDELHI_CI NEWDELHI_DP NEWDELHI_POCI REUNION_LAT REUNION_LON REUNION_TYPE REUNION_WIND REUNION_PRES REUNION_TNUM REUNION_CI REUNION_RMW REUNION_R34_NE REUNION_R34_SE REUNION_R34_SW REUNION_R34_NW REUNION_R50_NE REUNION_R50_SE REUNION_R50_SW REUNION_R50_NW REUNION_R64_NE REUNION_R64_SE REUNION_R64_SW REUNION_R64_NW BOM_LAT BOM_LON BOM_TYPE BOM_WIND BOM_PRES BOM_TNUM BOM_CI BOM_RMW BOM_R34_NE BOM_R34_SE BOM_R34_SW BOM_R34_NW BOM_R50_NE BOM_R50_SE BOM_R50_SW BOM_R50_NW BOM_R64_NE BOM_R64_SE BOM_R64_SW BOM_R64_NW BOM_ROCI BOM_POCI BOM_EYE BOM_POS_METHOD BOM_PRES_METHOD NADI_LAT NADI_LON NADI_CAT NADI_WIND NADI_PRES WELLINGTON_LAT WELLINGTON_LON WELLINGTON_WIND WELLINGTON_PRES DS824_LAT DS824_LON DS824_STAGE DS824_WIND DS824_PRES TD9636_LAT TD9636_LON TD9636_STAGE TD9636_WIND TD9636_PRES TD9635_LAT TD9635_LON TD9635_WIND TD9635_PRES TD9635_ROCI NEUMANN_LAT NEUMANN_LON NEUMANN_CLASS NEUMANN_WIND NEUMANN_PRES MLC_LAT MLC_LON MLC_CLASS MLC_WIND MLC_PRES USA_GUST BOM_GUST BOM_GUST_PER REUNION_GUST REUNION_GUST_PER USA_SEAHGT USA_SEARAD_NE USA_SEARAD_SE USA_SEARAD_SW USA_SEARAD_NW STORM_SPEED STORM_DIR
1978063S13059 1978 20 SI MM KIKI1:KIKI2 1978-03-04 06:00:00 TS -13.4000 59.2000 reunion main 766 736 O________OO_O_ jtwc_sh SH241978 -13.4000 59.2000 -1 -13.4000 59.2000 TC 35 -13.4000 59.2000 2 -13.4000 59.2000 TC 30 9 243
1978063S13059 1978 20 SI MM KIKI1:KIKI2 1978-03-04 09:00:00 TS -13.6123 58.7652 main 736 708 P________PP_P_ SH241978 -13.6227 58.7427 -1 -13.6227 58.7427 TC 35 -13.5787 58.7602 2 -13.6251 58.8152 TC 30 9 246
1978063S13059 1978 20 SI MM KIKI1:KIKI2 1978-03-04 12:00:00 TS -13.7839 58.3315 reunion main 707 694 O________OP_O_ jtwc_sh SH241978 -13.8000 58.3000 -1 -13.8000 58.3000 TC 35 -13.7357 58.3259 2 -13.8000 58.4000 TC 30 9 252
1978063S13059 1978 20 SI MM KIKI1:KIKI2 1978-03-04 15:00:00 TS -13.8818 57.9040 main 694 693 P________PP_P_ SH241978 -13.8949 57.8850 -1 -13.8949 57.8850 TC 35 -13.8497 57.9037 2 -13.8875 57.9425 TC 32 8 262
1978063S13059 1978 20 SI MM KIKI1:KIKI2 1978-03-04 18:00:00 TS -13.9000 57.5000 reunion main 693 693 O________OO_O_ jtwc_sh SH241978 -13.9000 57.5000 -1 -13.9000 57.5000 TC 35 -13.9000 57.5000 2 -13.9000 57.5000 TC 35 8 272
1978063S13059 1978 20 SI MM KIKI1:KIKI2 1978-03-04 21:00:00 TS -13.8494 57.1297 main 706 696 P________PP_P_ SH241978 -13.8224 57.1349 -1 -13.8224 57.1349 TC 35 -13.8727 57.1215 2 -13.8799 57.1275 TC 35 7 283
1978063S13059 1978 20 SI MM KIKI1:KIKI2 1978-03-05 00:00:00 TS -13.7456 56.7936 reunion main 699 667 O________OP_O_ jtwc_sh SH241978 -13.7000 56.8000 -1 -13.7000 56.8000 TC 35 -13.7824 56.7745 2 -13.8000 56.8000 TC 35 7 289
1978063S13059 1978 20 SI MM KIKI1:KIKI2 1978-03-05 03:00:00 TS -13.6327 56.4745 main 670 643 P________PP_P_ SH241978 -13.6075 56.4775 -1 -13.6075 56.4775 TC 35 -13.6509 56.4653 2 -13.6650 56.4775 TC 35 6 293
1978063S13059 1978 20 SI MM KIKI1:KIKI2 1978-03-05 06:00:00 TS -13.5000 56.2000 reunion main 643 626 O________OO_O_ jtwc_sh SH241978 -13.5000 56.2000 -1 -13.5000 56.2000 TC 35 -13.5000 56.2000 2 -13.5000 56.2000 TC 35 6 299
1978063S13059 1978 20 SI MM KIKI1:KIKI2 1978-03-05 09:00:00 TS -13.3603 55.9746 main 626 609 P________PP_P_ SH241978 -13.3575 55.9775 -1 -13.3575 55.9775 TC 35 -13.3764 55.9657 2 -13.3500 55.9775 TC 35 5 306
1978063S13059 1978 20 SI MM KIKI1:KIKI2 1978-03-05 12:00:00 TS -13.2093 55.7938 reunion main 613 598 O________OP_O_ jtwc_sh SH241978 -13.2000 55.8000 -1 -13.2000 55.8000 TC 35 -13.2373 55.7751 2 -13.2000 55.8000 TC 35 5 310
1978063S13059 1978 20 SI MM KIKI1:KIKI2 1978-03-05 15:00:00 TS -13.0369 55.5858 main 601 591 P________PP_P_ SH241978 -13.0725 55.6350 -1 -13.0725 55.6350 TC 35 -13.0796 55.6219 2 -13.0575 55.6350 TC 35 5 316
1978063S13059 1978 20 SI MM KIKI1:KIKI2 1978-03-05 18:00:00 TS -12.8556 55.4444 reunion main 582 579 O____O___OO_O_ jtwc_sh SH241978 -12.9000 55.5000 -1 -12.5000 55.0000 99 9.90000 -12.9000 55.5000 TC 35 -12.9000 55.5000 2 -12.9000 55.5000 TC 35 5 331
1978063S13059 1978 20 SI MM KIKI1:KIKI2 1978-03-05 21:00:00 TS -12.5783 55.3255 main 579 579 P____P___PP_P_ SH241978 -12.6000 55.3850 -1 -12.5000 55.1000 99 -12.6000 55.3850 TC 35 -12.4568 55.3163 2 -12.7150 55.3850 TC 35 6 342
1978063S13059 1978 20 SI MM KIKI1:KIKI2 1978-03-06 00:00:00 TS -12.3168 55.2574 reunion main 587 577 O____O___OP_O_ jtwc_sh SH241978 -12.3000 55.3000 -1 -12.5000 55.2000 99 9.90000 -12.3000 55.3000 TC 35 -12.0300 55.1727 2 -12.5000 55.3000 TC 35 6 345
1978063S13059 1978 20 SI MM KIKI1:KIKI2 1978-03-06 03:00:00 TS -12.0203 55.1745 main 585 585 P____P___PP_P_ SH241978 -11.9549 55.1681 -1 -12.5000 55.3500 99 -11.9549 55.1681 TC 35 -11.8132 55.1178 2 -12.1300 55.2051 TC 35 3 351
1978063S13059 1978 20 SI MM KIKI1:KIKI2 1978-03-06 06:00:00 TS -12.0294 55.2176 reunion main 585 582 O____O___OO_O_ jtwc_sh SH241978 -12.0000 55.2000 -1 -12.5000 55.5000 2 9.90000 -12.0000 55.2000 TC 35 -12.0000 55.2000 2 -12.0000 55.2000 TC 35 7 153
1978063S13059 1978 20 SI MM KIKI1:KIKI2 1978-03-06 09:00:00 TS -12.6638 55.5104 main 597 597 P________PP_P_ SH241978 -12.7529 55.5823 -1 2 -12.7529 55.5823 TC 35 -12.8719 55.5800 2 -12.2776 55.2969 TC 35 20 158
1978063S13059 1978 20 SI MM KIKI1:KIKI2 1978-03-06 12:00:00 TS -13.8356 55.9710 reunion main 612 547 O________OP_O_ jtwc_sh SH241978 -14.0000 56.1000 -1 -14.0000 56.1000 TC 35 -14.1425 56.0842 2 -13.2000 55.6000 TC 35 29 161
1978063S13059 1978 20 SI MM KIKI1:KIKI2 1978-03-06 15:00:00 TS -15.4007 56.5079 main 536 338 P________PP_P_ SH241978 -15.4852 56.5883 -1 -15.4852 56.5883 TC 35 -15.5916 56.5725 2 -15.0410 56.2827 TC 35 35 162
1978063S13059 1978 20 SI MM KIKI1:KIKI2 1978-03-06 18:00:00 TS -17.1765 57.0824 reunion main 327 192 O________OO_O_ jtwc_sh SH241978 -17.0000 56.9000 -1 -17.0000 56.9000 TC 35 -17.0000 56.9000 2 -17.0000 56.9000 TC 35 31 168
1978063S13059 1978 20 SI MM KIKI1:KIKI2 1978-03-06 21:00:00 TS -18.4315 57.1894 main 192 94 P________PP_P_ SH241978 -18.1971 56.8562 -1 -18.1971 56.8562 TC 35 -18.1258 56.8907 2 -18.1416 57.0090 TC 35 23 181
1978063S13059 1978 20 SI MM KIKI1:KIKI2 1978-03-07 00:00:00 TS -19.4507 57.0254 reunion main 85 56 O________OP_O_ jtwc_sh SH241978 -19.2000 56.6000 -1 -19.2000 56.6000 TC 35 -19.1658 56.6956 2 -19.0000 56.8000 TC 35 20 192
1978063S13059 1978 20 SI MM KIKI1:KIKI2 1978-03-07 03:00:00 TS -20.3936 56.7367 main 63 51 P________PP_P_ SH241978 -20.1325 56.3227 -1 -20.1325 56.3227 TC 35 -20.0981 56.3772 2 -20.0102 56.4385 TC 35 18 202
1978063S13059 1978 20 SI MM KIKI1:KIKI2 1978-03-07 06:00:00 TS -21.1200 56.3000 reunion main 51 30 O________OO_O_ jtwc_sh SH241978 -20.9000 56.0000 -1 -20.9000 56.0000 TC 35 -20.9000 56.0000 2 -20.9000 56.0000 TC 35 15 210
1978063S13059 1978 20 SI MM KIKI1:KIKI2 1978-03-07 09:00:00 TS -21.6839 55.9385 main 45 45 P________PP_P_ SH241978 -21.5023 55.7218 -1 -21.5023 55.7218 TC 35 -21.5605 55.7503 2 -21.5747 55.7066 TC 37 12 214
1978063S13059 1978 20 SI MM KIKI1:KIKI2 1978-03-07 12:00:00 TS -22.1393 55.5495 reunion main 78 78 O________OP_O_ jtwc_sh SH241978 -22.0000 55.4000 -1 -22.0000 55.4000 TC 35 -22.0965 55.4477 2 -22.1000 55.4000 TC 40 12 220
1978063S13059 1978 20 SI MM KIKI1:KIKI2 1978-03-07 15:00:00 TS -22.5804 55.1227 main 143 143 P________PP_P_ SH241978 -22.5069 55.0317 -1 -22.5069 55.0317 TC 35 -22.5595 55.0465 2 -22.5643 55.0389 TC 42 13 227
1978063S13059 1978 20 SI MM KIKI1:KIKI2 1978-03-07 18:00:00 TS -23.0000 54.5600 reunion main 203 203 O________OO_O_ jtwc_sh SH241978 -23.0000 54.5000 -1 -23.0000 54.5000 TC 35 -23.0000 54.5000 2 -23.0000 54.5000 TC 45 15 236
1978063S13059 1978 20 SI MM KIKI1:KIKI2 1978-03-07 21:00:00 TS -23.4311 53.7667 main 280 280 P________PP_P_ SH241978 -23.5076 53.7250 -1 -23.5076 53.7250 TC 35 -23.5043 53.7242 2 -23.5004 53.6678 TC 47 18 241
1978063S13059 1978 20 SI MM KIKI1:KIKI2 1978-03-08 00:00:00 TS -23.8583 52.8614 reunion main 380 380 O________OP_O_ jtwc_sh SH241978 -24.0000 52.8000 -1 -24.0000 52.8000 TC 35 -23.9915 52.8072 2 -24.0000 52.7000 TC 50 19 242
1978063S13059 1978 20 SI MM KIKI1:KIKI2 1978-03-08 03:00:00 TS -24.2974 51.9691 main 448 382 P________PP_P_ SH241978 -24.4652 51.8348 -1 -24.4652 51.8348 TC 35 -24.4574 51.8362 2 -24.4648 51.7771 TC 52 18 241
1978063S13059 1978 20 SI MM KIKI1:KIKI2 1978-03-08 06:00:00 TS -24.7200 51.1200 36 991 reunion main 372 317 O________OO_O_ jtwc_sh SH241978 -24.9000 50.9000 -1 -24.9000 50.9000 TC 35 -24.9000 50.9000 2 -24.9000 50.9000 TC 55 17 241
1978063S13059 1978 20 SI MM KIKI1:KIKI2 1978-03-08 09:00:00 TS -25.1004 50.3747 main 317 261 P________PP_P_ SH241978 -25.3067 50.1117 -1 -25.3067 50.1117 TC 35 -25.3247 50.0667 2 -25.3069 50.1192 TC 50 15 240
1978063S13059 1978 20 SI MM KIKI1:KIKI2 1978-03-08 12:00:00 TS -25.4659 49.6783 reunion main 266 210 O________OP_O_ jtwc_sh SH241978 -25.7000 49.4000 -1 -25.7000 49.4000 TC 35 -25.7293 49.2915 2 -25.7000 49.4000 TC 45 991 15 240
1978063S13059 1978 20 SI MM KIKI1:KIKI2 1978-03-08 15:00:00 TS -25.8393 48.9609 main 210 179 P________PP_P_ SH241978 -26.0999 48.6623 -1 -26.0999 48.6623 TC 35 -26.1191 48.5954 2 -26.1075 48.6550 TC 50 15 239
1978063S13059 1978 20 SI MM KIKI1:KIKI2 1978-03-08 18:00:00 TS -26.2200 48.3000 reunion main 179 173 O________OO_O_ jtwc_sh SH241978 -26.5000 48.0000 -1 -26.5000 48.0000 TC 35 -26.5000 48.0000 2 -26.5000 48.0000 TC 55 14 235
1978063S13059 1978 20 SI MM KIKI1:KIKI2 1978-03-08 21:00:00 TS -26.6123 47.7185 main 180 180 P________PP_P_ SH241978 -26.9073 47.4323 -1 -26.9073 47.4323 TC 35 -26.8771 47.5183 2 -26.8496 47.4894 TC 52 12 231
1978063S13059 1978 20 SI MM KIKI1:KIKI2 1978-03-09 00:00:00 TS -26.9622 47.2815 reunion main 207 204 O________OP_O_ jtwc_sh SH241978 -27.3000 47.0000 -1 -27.3000 47.0000 TC 35 -27.2523 47.1283 2 -27.2000 47.1000 TC 50 10 223
1978063S13059 1978 20 SI MM KIKI1:KIKI2 1978-03-09 03:00:00 TS -27.3515 46.9314 main 244 244 P________PP_P_ SH241978 -27.6600 46.7101 -1 -27.6600 46.7101 TC 35 -27.6265 46.7994 2 -27.7274 46.6952 TC 50 9 218
1978063S13059 1978 20 SI MM KIKI1:KIKI2 1978-03-09 06:00:00 TS -27.6364 46.6818 28 997 reunion main 253 228 O________OO_O_ jtwc_sh SH241978 -28.0000 46.5000 -1 -28.0000 46.5000 TC 35 -28.0000 46.5000 2 -28.0000 46.5000 TC 50 3 259
1978063S13059 1978 20 SI MM KIKI1:KIKI2 1978-03-09 09:00:00 TS -27.4013 46.6428 main 228 209 ____________P_ SH241978 -1 TC 2 -27.5226 46.7737 TC 42 4 343
1978063S13059 1978 20 SI MM KIKI1:KIKI2 1978-03-09 12:00:00 ET -27.2500 46.5500 reunion main 209 204 ____________O_ -1 2 -27.0000 47.0000 EX 35 997 4 262
1978063S13059 1978 20 SI MM KIKI1:KIKI2 1978-03-09 15:00:00 ET -27.4539 46.2225 main 223 220 ____________P_ -1 2 -27.1306 46.6255 EX 40 8 228
1978063S13059 1978 20 SI MM KIKI1:KIKI2 1978-03-09 18:00:00 ET -27.8000 45.8500 reunion main 248 247 ____________O_ -1 -27.5000 46.1000 EX 45 9 220
1978063S13059 1978 20 SI MM KIKI1:KIKI2 1978-03-09 21:00:00 ET -28.1387 45.5700 main 279 279 ____________P_ -1 -27.7772 45.8196 EX 42 8 212
1978063S13059 1978 20 SI MM KIKI1:KIKI2 1978-03-10 00:00:00 ET -28.5000 45.3500 reunion main 323 323 ____________O_ -1 -28.1000 45.6000 EX 40 8 208
1978063S13059 1978 20 SI MM KIKI1:KIKI2 1978-03-10 03:00:00 ET -28.8424 45.1366 main 357 357 ____________P_ -1 -28.5001 45.3203 EX 37 8 201
1978063S13059 1978 20 SI MM KIKI1:KIKI2 1978-03-10 06:00:00 MX -29.2000 45.0500 reunion main 402 402 ____________O_ -1 -28.9000 45.1000 EX 35 8 181
1978063S13059 1978 20 SI MM KIKI1:KIKI2 1978-03-10 09:00:00 MX -29.5961 45.1273 main 446 446 ____________P_ -1 -29.1847 44.9530 EX 32 9 159
1978063S13059 1978 20 SI MM KIKI1:KIKI2 1978-03-10 12:00:00 ET -30.0000 45.4000 reunion main 491 491 ____________O_ -1 -29.5000 45.0000 EX 30 10 143
1978063S13059 1978 20 SI MM KIKI1:KIKI2 1978-03-10 15:00:00 ET -30.3858 45.8104 main 536 536 ____________P_ -1 -30.0074 45.3017 EX 27 11 131
1978063S13059 1978 20 SI MM KIKI1:KIKI2 1978-03-10 18:00:00 ET -30.7500 46.4000 reunion main 576 587 ____________O_ -1 -30.5000 45.8000 EX 25 13 120
1978063S13059 1978 20 SI MM KIKI1:KIKI2 1978-03-10 21:00:00 ET -31.0566 47.1381 main 633 633 ____________P_ -1 -30.7642 46.3192 EX 25 15 116
1978063S13059 1978 20 SI MM KIKI1:KIKI2 1978-03-11 00:00:00 ET -31.4000 47.9500 reunion main 691 691 ____________O_ -1 -31.0000 47.0000 EX 25 16 121
1978063S13059 1978 20 SI MM KIKI1:KIKI2 1978-03-11 03:00:00 ET -31.8779 48.7707 main 772 772 ____________P_ -1 -31.3490 47.9570 EX 25 16 128
1978063S13059 1978 20 SI MM KIKI1:KIKI2 1978-03-11 06:00:00 MX -32.4000 49.4500 reunion main 845 845 ____________O_ -1 -31.8000 48.9000 EX 25 14 138
1978063S13059 1978 20 SI MM KIKI1:KIKI2 1978-03-11 09:00:00 MX -32.9007 49.8591 main 910 910 ____________P_ -1 -32.4069 49.5843 EX 25 11 152
1978063S13059 1978 20 SI MM KIKI1:KIKI2 1978-03-11 12:00:00 ET -33.3500 50.0500 reunion main 958 955 ____________O_ -1 -33.0000 50.0000 EX 25 8 164
1978063S13059 1978 20 SI MM KIKI1:KIKI2 1978-03-11 15:00:00 ET -33.6523 50.1244 main 1000 1000 ____________P_ -1 -33.3196 50.1338 EX 25 7 176
1978063S13059 1978 20 SI MM KIKI1:KIKI2 1978-03-11 18:00:00 ET -34.0000 50.1000 reunion main 1032 1032 ____________O_ -1 -33.7000 50.1000 EX 25 10 183
1978063S13059 1978 20 SI MM KIKI1:KIKI2 1978-03-11 21:00:00 ET -34.6475 50.0826 main 1095 1095 ____________P_ -1 -34.5600 50.1151 EX 25 13 182
1978063S13059 1978 20 SI MM KIKI1:KIKI2 1978-03-12 00:00:00 ET -35.2571 50.0571 reunion main 1168 1164 ____________O_ -1 -35.3000 50.1000 EX 25 8 183
1978063S13059 1978 20 SI MM KIKI1:KIKI2 1978-03-12 03:00:00 ET -35.4125 50.0290 main 1174 1174 ____________P_ -1 -35.3100 50.0499 EX 25 2 195
1978063S13059 1978 20 SI MM KIKI1:KIKI2 1978-03-12 06:00:00 MX -35.4000 50.0000 reunion main 1174 1174 ____________O_ -1 -35.2000 50.0000 EX 25 1 217
1978063S13059 1978 20 SI MM KIKI1:KIKI2 1978-03-12 09:00:00 ET -35.4675 49.9875 main 1185 1185 ____________P_ -1 -35.4675 49.9875 EX 25 6 180
1978063S13059 1978 20 SI MM KIKI1:KIKI2 1978-03-12 12:00:00 ET -36.0000 50.0000 main 1236 ____________O_ -1 -36.0000 50.0000 EX 25 11 0

About IBTrACS Database

This database is a web-friendly format of International Best Track Archive for Climate Stewardship (IBTrACS), a global best track data archive curated by NOAA dating back to 1842.

Updated: 2021-10-21